sensor_id;sensor_type;location;lat;lon;timestamp;pressure;altitude;pressure_sealevel;temperature;humidity
36964;BME280;22878;48.616;35.326;2022-12-18T00:02:23;100910.58;;;13.33;100.00
36964;BME280;22878;48.616;35.326;2022-12-18T00:04:49;100918.14;;;13.46;100.00
36964;BME280;22878;48.616;35.326;2022-12-18T00:07:14;100922.98;;;13.21;100.00
36964;BME280;22878;48.616;35.326;2022-12-18T00:09:41;100932.23;;;13.35;100.00
36964;BME280;22878;48.616;35.326;2022-12-18T00:12:07;100942.78;;;13.37;100.00
36964;BME280;22878;48.616;35.326;2022-12-18T00:14:33;100953.05;;;13.35;100.00
36964;BME280;22878;48.616;35.326;2022-12-18T00:16:59;100956.23;;;13.11;100.00
36964;BME280;22878;48.616;35.326;2022-12-18T00:19:26;100958.36;;;12.94;100.00
36964;BME280;22878;48.616;35.326;2022-12-18T00:21:53;100951.07;;;13.00;100.00
36964;BME280;22878;48.616;35.326;2022-12-18T00:24:19;100949.48;;;13.06;100.00
36964;BME280;22878;48.616;35.326;2022-12-18T00:26:45;100959.44;;;12.83;100.00
36964;BME280;22878;48.616;35.326;2022-12-18T00:29:12;100965.41;;;12.92;100.00
36964;BME280;22878;48.616;35.326;2022-12-18T00:31:40;100969.15;;;12.81;100.00
36964;BME280;22878;48.616;35.326;2022-12-18T00:34:10;100966.42;;;12.76;100.00
36964;BME280;22878;48.616;35.326;2022-12-18T00:39:53;100974.64;;;13.14;100.00
36964;BME280;22878;48.616;35.326;2022-12-18T00:42:19;100999.01;;;13.09;100.00
36964;BME280;22878;48.616;35.326;2022-12-18T00:45:04;101008.95;;;12.93;100.00
36964;BME280;22878;48.616;35.326;2022-12-18T00:47:31;101020.06;;;12.39;100.00
36964;BME280;22878;48.616;35.326;2022-12-18T00:49:57;101030.38;;;12.08;100.00
36964;BME280;22878;48.616;35.326;2022-12-18T00:52:23;101041.43;;;11.76;100.00
36964;BME280;22878;48.616;35.326;2022-12-18T00:54:49;101033.53;;;11.40;100.00
36964;BME280;22878;48.616;35.326;2022-12-18T00:57:15;101040.36;;;11.23;100.00
36964;BME280;22878;48.616;35.326;2022-12-18T00:59:41;101050.95;;;11.27;100.00
36964;BME280;22878;48.616;35.326;2022-12-18T01:02:07;101053.75;;;11.13;100.00
36964;BME280;22878;48.616;35.326;2022-12-18T01:04:33;101061.95;;;10.79;100.00
36964;BME280;22878;48.616;35.326;2022-12-18T01:07:00;101067.20;;;10.50;100.00
36964;BME280;22878;48.616;35.326;2022-12-18T01:09:26;101081.43;;;10.45;100.00
36964;BME280;22878;48.616;35.326;2022-12-18T01:11:52;101081.44;;;10.14;100.00
36964;BME280;22878;48.616;35.326;2022-12-18T01:14:18;101086.67;;;10.04;100.00
36964;BME280;22878;48.616;35.326;2022-12-18T01:16:43;101088.63;;;9.91;100.00
36964;BME280;22878;48.616;35.326;2022-12-18T01:19:10;101095.42;;;9.96;100.00
36964;BME280;22878;48.616;35.326;2022-12-18T01:21:36;101089.78;;;9.81;100.00
36964;BME280;22878;48.616;35.326;2022-12-18T01:24:02;101097.69;;;9.71;100.00
36964;BME280;22878;48.616;35.326;2022-12-18T01:26:29;101097.53;;;9.63;100.00
36964;BME280;22878;48.616;35.326;2022-12-18T01:28:56;101105.98;;;9.15;100.00
36964;BME280;22878;48.616;35.326;2022-12-18T01:31:27;101108.48;;;9.04;100.00
36964;BME280;22878;48.616;35.326;2022-12-18T01:33:56;101108.08;;;8.98;100.00
36964;BME280;22878;48.616;35.326;2022-12-18T01:36:25;101109.17;;;9.00;100.00
36964;BME280;22878;48.616;35.326;2022-12-18T01:38:55;101111.75;;;9.06;100.00
36964;BME280;22878;48.616;35.326;2022-12-18T01:41:24;101123.93;;;8.97;100.00
36964;BME280;22878;48.616;35.326;2022-12-18T01:43:56;101124.45;;;8.61;100.00
36964;BME280;22878;48.616;35.326;2022-12-18T01:46:24;101124.11;;;8.46;100.00
36964;BME280;22878;48.616;35.326;2022-12-18T01:48:54;101138.61;;;8.36;100.00
36964;BME280;22878;48.616;35.326;2022-12-18T01:51:22;101148.84;;;8.15;100.00
36964;BME280;22878;48.616;35.326;2022-12-18T01:53:49;101164.61;;;8.03;100.00
36964;BME280;22878;48.616;35.326;2022-12-18T01:56:17;101175.32;;;7.82;100.00
36964;BME280;22878;48.616;35.326;2022-12-18T01:58:59;101176.53;;;7.86;100.00
36964;BME280;22878;48.616;35.326;2022-12-18T02:01:29;101174.45;;;7.69;100.00
36964;BME280;22878;48.616;35.326;2022-12-18T02:03:56;101180.97;;;7.62;100.00
36964;BME280;22878;48.616;35.326;2022-12-18T02:06:34;101191.39;;;7.51;100.00
36964;BME280;22878;48.616;35.326;2022-12-18T02:12:06;101190.35;;;7.34;100.00
36964;BME280;22878;48.616;35.326;2022-12-18T02:17:43;101204.14;;;7.56;100.00
36964;BME280;22878;48.616;35.326;2022-12-18T02:26:11;101207.41;;;7.12;100.00
36964;BME280;22878;48.616;35.326;2022-12-18T02:31:26;101223.20;;;6.86;100.00
36964;BME280;22878;48.616;35.326;2022-12-18T02:33:55;101230.87;;;6.82;100.00
36964;BME280;22878;48.616;35.326;2022-12-18T02:36:22;101241.95;;;6.86;100.00
36964;BME280;22878;48.616;35.326;2022-12-18T02:38:50;101233.69;;;6.88;100.00
36964;BME280;22878;48.616;35.326;2022-12-18T02:41:17;101249.30;;;6.81;100.00
36964;BME280;22878;48.616;35.326;2022-12-18T02:43:56;101250.55;;;6.79;100.00
36964;BME280;22878;48.616;35.326;2022-12-18T02:46:32;101252.01;;;6.66;100.00
36964;BME280;22878;48.616;35.326;2022-12-18T02:49:08;101260.89;;;6.75;100.00
36964;BME280;22878;48.616;35.326;2022-12-18T02:51:56;101265.34;;;6.72;100.00
36964;BME280;22878;48.616;35.326;2022-12-18T02:54:52;101268.86;;;6.82;100.00
36964;BME280;22878;48.616;35.326;2022-12-18T03:00:17;101279.88;;;6.74;100.00
36964;BME280;22878;48.616;35.326;2022-12-18T03:03:03;101271.42;;;6.70;100.00
36964;BME280;22878;48.616;35.326;2022-12-18T03:08:15;101282.58;;;6.67;100.00
36964;BME280;22878;48.616;35.326;2022-12-18T03:10:51;101287.46;;;6.61;100.00
36964;BME280;22878;48.616;35.326;2022-12-18T03:15:59;101293.95;;;6.63;100.00
36964;BME280;22878;48.616;35.326;2022-12-18T03:21:02;101298.17;;;6.61;100.00
36964;BME280;22878;48.616;35.326;2022-12-18T03:23:34;101301.88;;;6.76;100.00
36964;BME280;22878;48.616;35.326;2022-12-18T03:26:05;101304.70;;;6.72;100.00
36964;BME280;22878;48.616;35.326;2022-12-18T03:31:05;101309.45;;;6.70;100.00
36964;BME280;22878;48.616;35.326;2022-12-18T03:33:42;101316.38;;;6.68;100.00
36964;BME280;22878;48.616;35.326;2022-12-18T03:36:19;101332.03;;;6.65;100.00
36964;BME280;22878;48.616;35.326;2022-12-18T03:38:46;101326.67;;;6.65;100.00
36964;BME280;22878;48.616;35.326;2022-12-18T03:52:36;101331.55;;;6.43;100.00
36964;BME280;22878;48.616;35.326;2022-12-18T03:55:09;101337.00;;;6.45;100.00
36964;BME280;22878;48.616;35.326;2022-12-18T03:57:35;101338.67;;;6.40;100.00
36964;BME280;22878;48.616;35.326;2022-12-18T04:00:06;101337.63;;;6.41;100.00
36964;BME280;22878;48.616;35.326;2022-12-18T04:02:43;101341.05;;;6.39;100.00
36964;BME280;22878;48.616;35.326;2022-12-18T04:05:10;101351.11;;;6.43;100.00
36964;BME280;22878;48.616;35.326;2022-12-18T04:07:38;101359.95;;;6.44;100.00
36964;BME280;22878;48.616;35.326;2022-12-18T04:10:07;101371.19;;;6.43;100.00
36964;BME280;22878;48.616;35.326;2022-12-18T04:12:37;101374.33;;;6.33;100.00
36964;BME280;22878;48.616;35.326;2022-12-18T04:15:03;101379.48;;;6.28;100.00
36964;BME280;22878;48.616;35.326;2022-12-18T04:17:30;101376.52;;;6.27;100.00
36964;BME280;22878;48.616;35.326;2022-12-18T04:19:56;101388.23;;;6.26;100.00
36964;BME280;22878;48.616;35.326;2022-12-18T04:22:22;101385.39;;;6.14;100.00
36964;BME280;22878;48.616;35.326;2022-12-18T04:24:48;101380.69;;;6.10;100.00
36964;BME280;22878;48.616;35.326;2022-12-18T04:27:14;101382.20;;;6.22;100.00
36964;BME280;22878;48.616;35.326;2022-12-18T04:29:40;101380.43;;;6.25;100.00
36964;BME280;22878;48.616;35.326;2022-12-18T04:32:07;101387.64;;;6.18;100.00
36964;BME280;22878;48.616;35.326;2022-12-18T04:34:33;101396.72;;;6.17;100.00
36964;BME280;22878;48.616;35.326;2022-12-18T04:36:59;101401.97;;;6.21;100.00
36964;BME280;22878;48.616;35.326;2022-12-18T04:39:31;101400.63;;;6.14;100.00
36964;BME280;22878;48.616;35.326;2022-12-18T04:41:59;101402.61;;;6.03;100.00
36964;BME280;22878;48.616;35.326;2022-12-18T04:44:25;101408.88;;;6.06;100.00
36964;BME280;22878;48.616;35.326;2022-12-18T04:46:51;101399.86;;;6.00;100.00
36964;BME280;22878;48.616;35.326;2022-12-18T04:49:17;101415.27;;;6.05;100.00
36964;BME280;22878;48.616;35.326;2022-12-18T04:51:43;101415.17;;;6.02;100.00
36964;BME280;22878;48.616;35.326;2022-12-18T04:54:09;101418.66;;;6.03;100.00
36964;BME280;22878;48.616;35.326;2022-12-18T04:56:35;101428.43;;;6.13;100.00
36964;BME280;22878;48.616;35.326;2022-12-18T04:59:00;101430.30;;;6.12;100.00
36964;BME280;22878;48.616;35.326;2022-12-18T05:05:08;101425.77;;;6.00;100.00
36964;BME280;22878;48.616;35.326;2022-12-18T05:07:34;101438.66;;;6.00;100.00
36964;BME280;22878;48.616;35.326;2022-12-18T05:10:00;101436.91;;;6.03;100.00
36964;BME280;22878;48.616;35.326;2022-12-18T05:16:07;101454.50;;;5.95;100.00
36964;BME280;22878;48.616;35.326;2022-12-18T05:18:34;101462.53;;;5.95;100.00
36964;BME280;22878;48.616;35.326;2022-12-18T05:21:00;101467.98;;;5.98;100.00
36964;BME280;22878;48.616;35.326;2022-12-18T05:23:27;101476.81;;;5.91;100.00
36964;BME280;22878;48.616;35.326;2022-12-18T05:25:56;101478.23;;;5.87;100.00
36964;BME280;22878;48.616;35.326;2022-12-18T05:28:25;101487.92;;;5.88;100.00
36964;BME280;22878;48.616;35.326;2022-12-18T05:30:57;101490.48;;;5.92;100.00
36964;BME280;22878;48.616;35.326;2022-12-18T05:33:26;101487.08;;;5.88;100.00
36964;BME280;22878;48.616;35.326;2022-12-18T05:35:56;101494.29;;;5.81;100.00
36964;BME280;22878;48.616;35.326;2022-12-18T05:38:24;101496.86;;;5.78;100.00
36964;BME280;22878;48.616;35.326;2022-12-18T05:40:52;101506.11;;;5.76;100.00
36964;BME280;22878;48.616;35.326;2022-12-18T05:43:19;101519.38;;;5.73;100.00
36964;BME280;22878;48.616;35.326;2022-12-18T05:45:48;101516.70;;;5.73;100.00
36964;BME280;22878;48.616;35.326;2022-12-18T05:48:15;101520.52;;;5.75;100.00
36964;BME280;22878;48.616;35.326;2022-12-18T05:50:44;101516.61;;;5.84;100.00
36964;BME280;22878;48.616;35.326;2022-12-18T05:53:11;101527.61;;;5.78;100.00
36964;BME280;22878;48.616;35.326;2022-12-18T05:55:39;101530.81;;;5.78;100.00
36964;BME280;22878;48.616;35.326;2022-12-18T05:58:08;101538.02;;;5.84;100.00
36964;BME280;22878;48.616;35.326;2022-12-18T06:00:36;101540.98;;;5.78;100.00
36964;BME280;22878;48.616;35.326;2022-12-18T06:03:10;101552.70;;;5.70;100.00
36964;BME280;22878;48.616;35.326;2022-12-18T06:05:38;101558.55;;;5.63;100.00
36964;BME280;22878;48.616;35.326;2022-12-18T06:08:07;101554.14;;;5.66;100.00
36964;BME280;22878;48.616;35.326;2022-12-18T06:10:33;101572.45;;;5.76;100.00
36964;BME280;22878;48.616;35.326;2022-12-18T06:12:59;101573.90;;;5.79;100.00
36964;BME280;22878;48.616;35.326;2022-12-18T06:15:25;101571.52;;;5.60;100.00
36964;BME280;22878;48.616;35.326;2022-12-18T06:17:51;101568.48;;;5.39;100.00
36964;BME280;22878;48.616;35.326;2022-12-18T06:20:17;101574.95;;;5.40;100.00
36964;BME280;22878;48.616;35.326;2022-12-18T06:26:24;101588.80;;;5.27;100.00
36964;BME280;22878;48.616;35.326;2022-12-18T06:32:30;101594.06;;;5.37;100.00
36964;BME280;22878;48.616;35.326;2022-12-18T06:34:56;101601.03;;;5.32;100.00
36964;BME280;22878;48.616;35.326;2022-12-18T06:37:33;101613.34;;;5.26;100.00
36964;BME280;22878;48.616;35.326;2022-12-18T06:39:59;101618.38;;;5.25;100.00
36964;BME280;22878;48.616;35.326;2022-12-18T06:42:26;101612.20;;;5.18;100.00
36964;BME280;22878;48.616;35.326;2022-12-18T06:44:54;101610.81;;;5.11;100.00
36964;BME280;22878;48.616;35.326;2022-12-18T06:47:19;101606.41;;;5.14;100.00
36964;BME280;22878;48.616;35.326;2022-12-18T06:52:13;101626.89;;;5.18;100.00
36964;BME280;22878;48.616;35.326;2022-12-18T06:54:39;101634.23;;;5.27;100.00
36964;BME280;22878;48.616;35.326;2022-12-18T06:57:05;101632.96;;;5.22;100.00
36964;BME280;22878;48.616;35.326;2022-12-18T06:59:31;101636.73;;;5.17;100.00
36964;BME280;22878;48.616;35.326;2022-12-18T07:01:59;101629.17;;;5.21;100.00
36964;BME280;22878;48.616;35.326;2022-12-18T07:04:29;101635.59;;;5.09;100.00
36964;BME280;22878;48.616;35.326;2022-12-18T07:06:55;101633.80;;;5.06;100.00
36964;BME280;22878;48.616;35.326;2022-12-18T07:09:21;101640.41;;;5.10;100.00
36964;BME280;22878;48.616;35.326;2022-12-18T07:19:08;101643.36;;;5.04;100.00
36964;BME280;22878;48.616;35.326;2022-12-18T07:21:34;101648.03;;;5.13;100.00
36964;BME280;22878;48.616;35.326;2022-12-18T07:24:00;101648.67;;;5.15;100.00
36964;BME280;22878;48.616;35.326;2022-12-18T07:26:26;101657.29;;;5.17;100.00
36964;BME280;22878;48.616;35.326;2022-12-18T07:28:56;101668.31;;;5.18;100.00
36964;BME280;22878;48.616;35.326;2022-12-18T07:31:23;101674.37;;;5.22;100.00
36964;BME280;22878;48.616;35.326;2022-12-18T07:33:50;101670.59;;;5.21;100.00
36964;BME280;22878;48.616;35.326;2022-12-18T07:39:22;101674.08;;;5.21;100.00
36964;BME280;22878;48.616;35.326;2022-12-18T07:41:48;101691.59;;;5.13;100.00
36964;BME280;22878;48.616;35.326;2022-12-18T07:44:15;101696.03;;;5.17;100.00
36964;BME280;22878;48.616;35.326;2022-12-18T07:46:41;101706.98;;;5.11;100.00
36964;BME280;22878;48.616;35.326;2022-12-18T07:52:48;101696.70;;;5.08;100.00
36964;BME280;22878;48.616;35.326;2022-12-18T07:55:14;101700.03;;;4.99;100.00
36964;BME280;22878;48.616;35.326;2022-12-18T07:57:40;101705.44;;;5.06;100.00
36964;BME280;22878;48.616;35.326;2022-12-18T08:00:07;101703.63;;;5.13;100.00
36964;BME280;22878;48.616;35.326;2022-12-18T08:02:33;101698.13;;;5.04;100.00
36964;BME280;22878;48.616;35.326;2022-12-18T08:04:59;101702.09;;;4.97;100.00
36964;BME280;22878;48.616;35.326;2022-12-18T08:07:25;101700.76;;;4.97;100.00
36964;BME280;22878;48.616;35.326;2022-12-18T08:09:51;101707.27;;;4.88;100.00
36964;BME280;22878;48.616;35.326;2022-12-18T08:12:17;101710.20;;;4.83;100.00
36964;BME280;22878;48.616;35.326;2022-12-18T08:14:43;101719.55;;;4.83;100.00
36964;BME280;22878;48.616;35.326;2022-12-18T08:17:09;101720.04;;;4.82;100.00
36964;BME280;22878;48.616;35.326;2022-12-18T08:19:35;101727.61;;;4.89;100.00
36964;BME280;22878;48.616;35.326;2022-12-18T08:22:01;101727.61;;;4.89;100.00
36964;BME280;22878;48.616;35.326;2022-12-18T08:24:27;101730.97;;;4.87;100.00
36964;BME280;22878;48.616;35.326;2022-12-18T08:30:35;101728.80;;;4.97;100.00
36964;BME280;22878;48.616;35.326;2022-12-18T08:33:01;101738.42;;;4.81;100.00
36964;BME280;22878;48.616;35.326;2022-12-18T08:35:27;101732.30;;;4.87;100.00
36964;BME280;22878;48.616;35.326;2022-12-18T08:37:53;101735.23;;;4.82;100.00
36964;BME280;22878;48.616;35.326;2022-12-18T08:40:19;101743.33;;;4.88;100.00
36964;BME280;22878;48.616;35.326;2022-12-18T08:42:45;101745.36;;;4.86;100.00
36964;BME280;22878;48.616;35.326;2022-12-18T08:45:40;101744.97;;;4.89;100.00
36964;BME280;22878;48.616;35.326;2022-12-18T08:48:06;101751.00;;;4.87;100.00
36964;BME280;22878;48.616;35.326;2022-12-18T08:50:32;101751.26;;;4.92;100.00
36964;BME280;22878;48.616;35.326;2022-12-18T08:52:58;101754.58;;;4.84;100.00
36964;BME280;22878;48.616;35.326;2022-12-18T08:55:23;101758.10;;;5.01;100.00
36964;BME280;22878;48.616;35.326;2022-12-18T08:57:50;101756.52;;;4.96;100.00
36964;BME280;22878;48.616;35.326;2022-12-18T09:00:16;101757.03;;;4.85;100.00
36964;BME280;22878;48.616;35.326;2022-12-18T09:02:43;101755.83;;;4.88;100.00
36964;BME280;22878;48.616;35.326;2022-12-18T09:05:09;101755.01;;;4.87;100.00
36964;BME280;22878;48.616;35.326;2022-12-18T09:07:35;101760.17;;;4.89;100.00
36964;BME280;22878;48.616;35.326;2022-12-18T09:10:01;101767.54;;;4.87;100.00
36964;BME280;22878;48.616;35.326;2022-12-18T09:12:27;101762.67;;;4.80;100.00
36964;BME280;22878;48.616;35.326;2022-12-18T09:14:53;101755.17;;;4.68;100.00
36964;BME280;22878;48.616;35.326;2022-12-18T09:17:19;101765.41;;;4.65;100.00
36964;BME280;22878;48.616;35.326;2022-12-18T09:19:45;101768.52;;;4.58;100.00
36964;BME280;22878;48.616;35.326;2022-12-18T09:22:11;101765.39;;;4.75;100.00
36964;BME280;22878;48.616;35.326;2022-12-18T09:24:37;101764.52;;;4.68;100.00
36964;BME280;22878;48.616;35.326;2022-12-18T09:27:03;101761.08;;;4.74;100.00
36964;BME280;22878;48.616;35.326;2022-12-18T09:29:29;101765.90;;;4.75;100.00
36964;BME280;22878;48.616;35.326;2022-12-18T09:31:55;101762.80;;;4.61;100.00
36964;BME280;22878;48.616;35.326;2022-12-18T09:34:21;101757.50;;;4.67;100.00
36964;BME280;22878;48.616;35.326;2022-12-18T09:36:48;101765.66;;;4.59;100.00
36964;BME280;22878;48.616;35.326;2022-12-18T09:39:14;101758.15;;;4.69;100.00
36964;BME280;22878;48.616;35.326;2022-12-18T09:41:52;101758.92;;;4.74;100.00
36964;BME280;22878;48.616;35.326;2022-12-18T09:47:10;101758.66;;;4.80;100.00
36964;BME280;22878;48.616;35.326;2022-12-18T09:49:40;101762.72;;;4.86;100.00
36964;BME280;22878;48.616;35.326;2022-12-18T09:52:14;101762.33;;;4.89;100.00
36964;BME280;22878;48.616;35.326;2022-12-18T09:54:51;101758.45;;;4.81;100.00
36964;BME280;22878;48.616;35.326;2022-12-18T09:57:23;101747.03;;;4.76;100.00
36964;BME280;22878;48.616;35.326;2022-12-18T09:59:57;101759.53;;;4.87;100.00
36964;BME280;22878;48.616;35.326;2022-12-18T10:02:31;101758.63;;;4.90;100.00
36964;BME280;22878;48.616;35.326;2022-12-18T10:10:40;101759.02;;;4.87;100.00
36964;BME280;22878;48.616;35.326;2022-12-18T10:13:27;101765.13;;;4.92;100.00
36964;BME280;22878;48.616;35.326;2022-12-18T10:26:14;101757.63;;;4.70;100.00
36964;BME280;22878;48.616;35.326;2022-12-18T10:28:41;101765.94;;;5.20;100.00
36964;BME280;22878;48.616;35.326;2022-12-18T10:33:44;101776.31;;;5.19;100.00
36964;BME280;22878;48.616;35.326;2022-12-18T10:36:10;101775.63;;;5.21;100.00
36964;BME280;22878;48.616;35.326;2022-12-18T10:38:36;101770.62;;;5.12;100.00
36964;BME280;22878;48.616;35.326;2022-12-18T10:41:23;101774.00;;;5.10;100.00
36964;BME280;22878;48.616;35.326;2022-12-18T10:43:47;101774.13;;;5.01;100.00
36964;BME280;22878;48.616;35.326;2022-12-18T10:46:20;101773.48;;;5.10;100.00
36964;BME280;22878;48.616;35.326;2022-12-18T10:54:04;101784.95;;;4.93;100.00
36964;BME280;22878;48.616;35.326;2022-12-18T10:56:34;101781.07;;;4.96;100.00
36964;BME280;22878;48.616;35.326;2022-12-18T10:59:04;101783.18;;;4.79;100.00
36964;BME280;22878;48.616;35.326;2022-12-18T11:01:52;101790.55;;;4.88;100.00
36964;BME280;22878;48.616;35.326;2022-12-18T11:04:28;101784.05;;;4.97;100.00
36964;BME280;22878;48.616;35.326;2022-12-18T11:07:05;101781.08;;;4.85;100.00
36964;BME280;22878;48.616;35.326;2022-12-18T11:09:37;101788.41;;;4.66;100.00
36964;BME280;22878;48.616;35.326;2022-12-18T11:14:49;101800.62;;;4.53;100.00
36964;BME280;22878;48.616;35.326;2022-12-18T11:17:22;101805.06;;;4.57;100.00
36964;BME280;22878;48.616;35.326;2022-12-18T11:19:56;101803.47;;;4.52;100.00
36964;BME280;22878;48.616;35.326;2022-12-18T11:22:31;101806.66;;;4.62;100.00
36964;BME280;22878;48.616;35.326;2022-12-18T11:25:02;101807.80;;;4.64;100.00
36964;BME280;22878;48.616;35.326;2022-12-18T11:29:18;101808.72;;;4.24;100.00
36964;BME280;22878;48.616;35.326;2022-12-18T11:31:47;101804.88;;;4.48;100.00
36964;BME280;22878;48.616;35.326;2022-12-18T11:34:30;101815.08;;;4.33;100.00
36964;BME280;22878;48.616;35.326;2022-12-18T11:36:59;101805.36;;;4.37;100.00
36964;BME280;22878;48.616;35.326;2022-12-18T11:39:46;101813.61;;;4.31;100.00
36964;BME280;22878;48.616;35.326;2022-12-18T11:45:32;101815.05;;;4.23;100.00
36964;BME280;22878;48.616;35.326;2022-12-18T11:48:04;101815.88;;;4.23;100.00
36964;BME280;22878;48.616;35.326;2022-12-18T11:50:44;101818.70;;;4.11;100.00
36964;BME280;22878;48.616;35.326;2022-12-18T11:53:12;101819.87;;;4.13;100.00
36964;BME280;22878;48.616;35.326;2022-12-18T11:58:49;101839.73;;;4.10;100.00
36964;BME280;22878;48.616;35.326;2022-12-18T12:07:44;101850.50;;;4.02;100.00
36964;BME280;22878;48.616;35.326;2022-12-18T12:10:20;101844.80;;;3.90;100.00
36964;BME280;22878;48.616;35.326;2022-12-18T12:13:13;101849.74;;;3.82;100.00
36964;BME280;22878;48.616;35.326;2022-12-18T12:21:50;101870.21;;;3.67;100.00
36964;BME280;22878;48.616;35.326;2022-12-18T12:30:16;101881.67;;;3.72;100.00
36964;BME280;22878;48.616;35.326;2022-12-18T12:33:01;101891.46;;;3.75;100.00
36964;BME280;22878;48.616;35.326;2022-12-18T12:38:31;101910.20;;;3.67;100.00
36964;BME280;22878;48.616;35.326;2022-12-18T12:41:05;101908.35;;;3.68;100.00
36964;BME280;22878;48.616;35.326;2022-12-18T12:46:10;101916.16;;;3.54;100.00
36964;BME280;22878;48.616;35.326;2022-12-18T12:48:58;101908.84;;;3.52;100.00
36964;BME280;22878;48.616;35.326;2022-12-18T12:51:35;101921.77;;;3.40;100.00
36964;BME280;22878;48.616;35.326;2022-12-18T13:05:53;101952.80;;;3.56;100.00
36964;BME280;22878;48.616;35.326;2022-12-18T13:08:28;101947.92;;;3.60;100.00
36964;BME280;22878;48.616;35.326;2022-12-18T13:10:59;101960.23;;;3.61;100.00
36964;BME280;22878;48.616;35.326;2022-12-18T13:13:52;101954.59;;;3.18;100.00
36964;BME280;22878;48.616;35.326;2022-12-18T13:16:22;101960.16;;;3.04;100.00
36964;BME280;22878;48.616;35.326;2022-12-18T13:18:51;101959.50;;;3.06;100.00
36964;BME280;22878;48.616;35.326;2022-12-18T13:21:30;101961.38;;;2.98;100.00
36964;BME280;22878;48.616;35.326;2022-12-18T13:24:15;101970.06;;;3.18;100.00
36964;BME280;22878;48.616;35.326;2022-12-18T13:26:48;101972.59;;;3.35;100.00
36964;BME280;22878;48.616;35.326;2022-12-18T13:32:23;101978.13;;;3.29;100.00
36964;BME280;22878;48.616;35.326;2022-12-18T13:37:52;101980.02;;;2.98;100.00
36964;BME280;22878;48.616;35.326;2022-12-18T13:43:23;101996.25;;;2.80;100.00
36964;BME280;22878;48.616;35.326;2022-12-18T13:46:04;101989.63;;;2.71;100.00
36964;BME280;22878;48.616;35.326;2022-12-18T13:51:54;102010.57;;;2.70;100.00
36964;BME280;22878;48.616;35.326;2022-12-18T14:02:51;102019.75;;;2.64;100.00
36964;BME280;22878;48.616;35.326;2022-12-18T14:05:28;102027.08;;;2.66;100.00
36964;BME280;22878;48.616;35.326;2022-12-18T14:10:27;102028.56;;;2.68;100.00
36964;BME280;22878;48.616;35.326;2022-12-18T14:12:53;102040.04;;;2.69;100.00
36964;BME280;22878;48.616;35.326;2022-12-18T14:18:01;102039.43;;;2.46;100.00
36964;BME280;22878;48.616;35.326;2022-12-18T14:20:32;102054.73;;;2.48;100.00
36964;BME280;22878;48.616;35.326;2022-12-18T14:22:58;102053.77;;;2.33;100.00
36964;BME280;22878;48.616;35.326;2022-12-18T14:25:29;102059.74;;;2.39;100.00
36964;BME280;22878;48.616;35.326;2022-12-18T14:30:39;102064.42;;;2.25;100.00
36964;BME280;22878;48.616;35.326;2022-12-18T14:33:12;102062.25;;;2.20;100.00
36964;BME280;22878;48.616;35.326;2022-12-18T14:35:59;102072.75;;;2.10;100.00
36964;BME280;22878;48.616;35.326;2022-12-18T14:38:37;102070.75;;;2.08;100.00
36964;BME280;22878;48.616;35.326;2022-12-18T14:41:12;102072.08;;;1.99;100.00
36964;BME280;22878;48.616;35.326;2022-12-18T14:43:41;102079.72;;;2.11;100.00
36964;BME280;22878;48.616;35.326;2022-12-18T14:52:02;102081.37;;;2.20;100.00
36964;BME280;22878;48.616;35.326;2022-12-18T14:54:31;102082.04;;;2.05;100.00
36964;BME280;22878;48.616;35.326;2022-12-18T14:57:01;102085.38;;;2.16;100.00
36964;BME280;22878;48.616;35.326;2022-12-18T14:59:32;102093.36;;;2.03;100.00
36964;BME280;22878;48.616;35.326;2022-12-18T15:02:18;102097.52;;;2.06;100.00
36964;BME280;22878;48.616;35.326;2022-12-18T15:04:45;102099.50;;;2.04;100.00
36964;BME280;22878;48.616;35.326;2022-12-18T15:07:22;102109.45;;;1.94;100.00
36964;BME280;22878;48.616;35.326;2022-12-18T15:12:44;102112.09;;;1.73;100.00
36964;BME280;22878;48.616;35.326;2022-12-18T15:20:51;102143.03;;;1.99;100.00
36964;BME280;22878;48.616;35.326;2022-12-18T15:26:02;102144.98;;;1.72;100.00
36964;BME280;22878;48.616;35.326;2022-12-18T15:31:32;102169.88;;;1.63;100.00
36964;BME280;22878;48.616;35.326;2022-12-18T15:36:46;102175.44;;;1.44;100.00
36964;BME280;22878;48.616;35.326;2022-12-18T15:39:12;102179.88;;;1.27;100.00
36964;BME280;22878;48.616;35.326;2022-12-18T15:41:39;102184.18;;;1.24;100.00
36964;BME280;22878;48.616;35.326;2022-12-18T15:44:23;102174.06;;;1.27;100.00
36964;BME280;22878;48.616;35.326;2022-12-18T15:46:49;102175.67;;;1.20;100.00
36964;BME280;22878;48.616;35.326;2022-12-18T15:49:15;102184.27;;;1.10;100.00
36964;BME280;22878;48.616;35.326;2022-12-18T15:51:41;102178.77;;;1.07;100.00
36964;BME280;22878;48.616;35.326;2022-12-18T15:54:11;102193.75;;;1.17;100.00
36964;BME280;22878;48.616;35.326;2022-12-18T15:56:39;102194.58;;;1.17;100.00
36964;BME280;22878;48.616;35.326;2022-12-18T15:59:24;102202.05;;;1.18;100.00
36964;BME280;22878;48.616;35.326;2022-12-18T16:01:51;102211.51;;;1.16;100.00
36964;BME280;22878;48.616;35.326;2022-12-18T16:04:21;102207.67;;;1.14;100.00
36964;BME280;22878;48.616;35.326;2022-12-18T16:06:48;102205.38;;;1.20;100.00
36964;BME280;22878;48.616;35.326;2022-12-18T16:09:14;102213.22;;;1.25;100.00
36964;BME280;22878;48.616;35.326;2022-12-18T16:11:43;102217.27;;;1.07;100.00
36964;BME280;22878;48.616;35.326;2022-12-18T16:14:20;102219.86;;;0.99;100.00